sensor_id;sensor_type;location;lat;lon;timestamp;P1;durP1;ratioP1;P2;durP2;ratioP2
50769;SDS011;36740;48.698;11.472;2023-08-20T01:58:49;10.50;;;6.28;;
50769;SDS011;36740;48.698;11.472;2023-08-20T02:02:13;11.95;;;5.75;;
50769;SDS011;36740;48.698;11.472;2023-08-20T02:54:05;9.90;;;6.07;;
50769;SDS011;36740;48.698;11.472;2023-08-20T03:21:32;14.23;;;6.88;;
50769;SDS011;36740;48.698;11.472;2023-08-20T03:28:30;11.60;;;7.45;;
50769;SDS011;36740;48.698;11.472;2023-08-20T06:17:15;10.55;;;5.78;;
50769;SDS011;36740;48.698;11.472;2023-08-20T06:46:42;10.40;;;5.43;;
50769;SDS011;36740;48.698;11.472;2023-08-20T07:06:26;8.02;;;4.55;;
50769;SDS011;36740;48.698;11.472;2023-08-20T07:19:43;12.18;;;4.70;;
50769;SDS011;36740;48.698;11.472;2023-08-20T07:26:39;6.90;;;3.33;;
50769;SDS011;36740;48.698;11.472;2023-08-20T07:44:02;7.97;;;4.55;;
50769;SDS011;36740;48.698;11.472;2023-08-20T07:50:49;11.90;;;4.38;;
50769;SDS011;36740;48.698;11.472;2023-08-20T08:05:08;8.95;;;4.82;;
50769;SDS011;36740;48.698;11.472;2023-08-20T08:08:14;11.45;;;4.85;;
50769;SDS011;36740;48.698;11.472;2023-08-20T08:28:51;6.88;;;4.15;;
50769;SDS011;36740;48.698;11.472;2023-08-20T09:42:00;6.38;;;3.90;;
50769;SDS011;36740;48.698;11.472;2023-08-20T10:50:56;5.38;;;3.15;;
50769;SDS011;36740;48.698;11.472;2023-08-20T11:04:01;6.53;;;4.00;;
50769;SDS011;36740;48.698;11.472;2023-08-20T11:20:51;6.68;;;3.63;;
50769;SDS011;36740;48.698;11.472;2023-08-20T11:58:41;4.65;;;2.92;;
50769;SDS011;36740;48.698;11.472;2023-08-20T12:01:29;6.63;;;2.63;;
50769;SDS011;36740;48.698;11.472;2023-08-20T12:04:15;5.53;;;3.22;;
50769;SDS011;36740;48.698;11.472;2023-08-20T12:07:01;7.32;;;3.67;;
50769;SDS011;36740;48.698;11.472;2023-08-20T12:09:48;5.18;;;2.88;;
50769;SDS011;36740;48.698;11.472;2023-08-20T12:12:34;6.55;;;2.95;;
50769;SDS011;36740;48.698;11.472;2023-08-20T12:15:19;6.38;;;3.70;;
50769;SDS011;36740;48.698;11.472;2023-08-20T12:18:05;3.97;;;2.58;;
50769;SDS011;36740;48.698;11.472;2023-08-20T12:20:51;6.93;;;3.00;;
50769;SDS011;36740;48.698;11.472;2023-08-20T12:23:36;8.93;;;3.03;;
50769;SDS011;36740;48.698;11.472;2023-08-20T12:26:22;4.55;;;2.72;;
50769;SDS011;36740;48.698;11.472;2023-08-20T12:29:08;6.28;;;3.70;;
50769;SDS011;36740;48.698;11.472;2023-08-20T12:31:56;6.03;;;3.33;;
50769;SDS011;36740;48.698;11.472;2023-08-20T12:34:48;8.57;;;2.75;;
50769;SDS011;36740;48.698;11.472;2023-08-20T12:37:33;5.20;;;2.72;;
50769;SDS011;36740;48.698;11.472;2023-08-20T12:40:19;7.50;;;3.60;;
50769;SDS011;36740;48.698;11.472;2023-08-20T12:43:05;6.38;;;3.85;;
50769;SDS011;36740;48.698;11.472;2023-08-20T12:45:50;6.97;;;3.47;;
50769;SDS011;36740;48.698;11.472;2023-08-20T12:48:36;6.47;;;3.30;;
50769;SDS011;36740;48.698;11.472;2023-08-20T12:51:22;14.60;;;3.72;;
50769;SDS011;36740;48.698;11.472;2023-08-20T12:54:10;7.95;;;3.38;;
50769;SDS011;36740;48.698;11.472;2023-08-20T12:56:56;5.38;;;3.10;;
50769;SDS011;36740;48.698;11.472;2023-08-20T12:59:42;11.07;;;4.30;;
50769;SDS011;36740;48.698;11.472;2023-08-20T13:02:28;7.03;;;3.55;;
50769;SDS011;36740;48.698;11.472;2023-08-20T13:05:14;3.83;;;2.95;;
50769;SDS011;36740;48.698;11.472;2023-08-20T13:08:00;8.38;;;3.28;;
50769;SDS011;36740;48.698;11.472;2023-08-20T13:10:48;11.20;;;3.65;;
50769;SDS011;36740;48.698;11.472;2023-08-20T13:13:41;5.85;;;2.42;;
50769;SDS011;36740;48.698;11.472;2023-08-20T13:16:27;6.28;;;3.38;;
50769;SDS011;36740;48.698;11.472;2023-08-20T13:19:12;5.40;;;3.42;;
50769;SDS011;36740;48.698;11.472;2023-08-20T13:21:58;5.38;;;2.70;;
50769;SDS011;36740;48.698;11.472;2023-08-20T13:24:44;10.88;;;3.72;;
50769;SDS011;36740;48.698;11.472;2023-08-20T13:27:30;7.70;;;4.00;;
50769;SDS011;36740;48.698;11.472;2023-08-20T13:30:15;4.57;;;2.75;;
50769;SDS011;36740;48.698;11.472;2023-08-20T13:33:02;6.18;;;2.83;;
50769;SDS011;36740;48.698;11.472;2023-08-20T13:35:48;4.00;;;2.83;;
50769;SDS011;36740;48.698;11.472;2023-08-20T13:38:34;5.57;;;3.40;;
50769;SDS011;36740;48.698;11.472;2023-08-20T13:41:19;7.05;;;3.10;;
50769;SDS011;36740;48.698;11.472;2023-08-20T13:44:08;5.38;;;3.65;;
50769;SDS011;36740;48.698;11.472;2023-08-20T13:46:54;6.90;;;3.30;;
50769;SDS011;36740;48.698;11.472;2023-08-20T13:49:40;4.05;;;2.40;;
50769;SDS011;36740;48.698;11.472;2023-08-20T13:52:25;3.85;;;2.50;;
50769;SDS011;36740;48.698;11.472;2023-08-20T13:55:11;10.00;;;3.75;;
50769;SDS011;36740;48.698;11.472;2023-08-20T13:57:57;6.32;;;3.13;;
50769;SDS011;36740;48.698;11.472;2023-08-20T14:00:43;4.28;;;2.70;;
50769;SDS011;36740;48.698;11.472;2023-08-20T14:03:29;5.22;;;3.45;;
50769;SDS011;36740;48.698;11.472;2023-08-20T14:06:14;7.30;;;3.65;;
50769;SDS011;36740;48.698;11.472;2023-08-20T14:09:00;8.70;;;3.95;;
50769;SDS011;36740;48.698;11.472;2023-08-20T14:11:46;7.13;;;3.78;;
50769;SDS011;36740;48.698;11.472;2023-08-20T14:14:32;5.72;;;3.55;;
50769;SDS011;36740;48.698;11.472;2023-08-20T14:17:17;4.20;;;2.78;;
50769;SDS011;36740;48.698;11.472;2023-08-20T14:20:03;13.55;;;3.88;;
50769;SDS011;36740;48.698;11.472;2023-08-20T14:22:50;7.40;;;3.28;;
50769;SDS011;36740;48.698;11.472;2023-08-20T14:25:36;6.18;;;2.97;;
50769;SDS011;36740;48.698;11.472;2023-08-20T14:28:22;5.35;;;3.17;;
50769;SDS011;36740;48.698;11.472;2023-08-20T14:31:07;4.13;;;2.65;;
50769;SDS011;36740;48.698;11.472;2023-08-20T14:33:54;5.38;;;2.60;;
50769;SDS011;36740;48.698;11.472;2023-08-20T14:36:39;5.60;;;3.25;;
50769;SDS011;36740;48.698;11.472;2023-08-20T14:39:25;5.05;;;3.53;;
50769;SDS011;36740;48.698;11.472;2023-08-20T14:42:11;4.15;;;2.65;;
50769;SDS011;36740;48.698;11.472;2023-08-20T14:44:56;8.07;;;2.72;;
50769;SDS011;36740;48.698;11.472;2023-08-20T14:47:42;7.50;;;4.07;;
50769;SDS011;36740;48.698;11.472;2023-08-20T14:50:28;7.80;;;3.70;;
50769;SDS011;36740;48.698;11.472;2023-08-20T14:53:13;6.80;;;3.15;;
50769;SDS011;36740;48.698;11.472;2023-08-20T14:55:59;6.60;;;2.63;;
50769;SDS011;36740;48.698;11.472;2023-08-20T14:58:45;5.68;;;2.83;;
50769;SDS011;36740;48.698;11.472;2023-08-20T15:01:30;4.32;;;2.72;;
50769;SDS011;36740;48.698;11.472;2023-08-20T15:04:16;3.83;;;2.45;;
50769;SDS011;36740;48.698;11.472;2023-08-20T15:07:02;4.22;;;2.72;;
50769;SDS011;36740;48.698;11.472;2023-08-20T15:09:49;6.40;;;3.20;;
50769;SDS011;36740;48.698;11.472;2023-08-20T15:12:35;6.88;;;2.92;;
50769;SDS011;36740;48.698;11.472;2023-08-20T15:15:21;4.82;;;2.80;;
50769;SDS011;36740;48.698;11.472;2023-08-20T15:18:06;7.15;;;3.05;;
50769;SDS011;36740;48.698;11.472;2023-08-20T15:20:59;4.90;;;3.03;;
50769;SDS011;36740;48.698;11.472;2023-08-20T15:23:44;5.38;;;2.97;;
50769;SDS011;36740;48.698;11.472;2023-08-20T15:26:30;5.38;;;2.75;;
50769;SDS011;36740;48.698;11.472;2023-08-20T15:29:16;7.07;;;3.28;;
50769;SDS011;36740;48.698;11.472;2023-08-20T15:32:01;7.03;;;3.00;;
50769;SDS011;36740;48.698;11.472;2023-08-20T15:34:49;5.27;;;3.23;;
50769;SDS011;36740;48.698;11.472;2023-08-20T15:37:41;5.90;;;3.42;;
50769;SDS011;36740;48.698;11.472;2023-08-20T15:40:27;5.47;;;2.97;;
50769;SDS011;36740;48.698;11.472;2023-08-20T15:43:13;10.00;;;3.50;;
50769;SDS011;36740;48.698;11.472;2023-08-20T15:45:58;6.25;;;2.53;;
50769;SDS011;36740;48.698;11.472;2023-08-20T15:48:44;8.90;;;3.25;;
50769;SDS011;36740;48.698;11.472;2023-08-20T15:51:30;5.38;;;2.97;;
50769;SDS011;36740;48.698;11.472;2023-08-20T15:54:15;6.15;;;2.95;;
50769;SDS011;36740;48.698;11.472;2023-08-20T15:57:01;3.75;;;2.53;;
50769;SDS011;36740;48.698;11.472;2023-08-20T15:59:47;7.75;;;3.05;;
50769;SDS011;36740;48.698;11.472;2023-08-20T16:02:33;8.10;;;3.67;;
50769;SDS011;36740;48.698;11.472;2023-08-20T16:05:19;5.55;;;2.45;;
50769;SDS011;36740;48.698;11.472;2023-08-20T16:08:04;6.07;;;3.30;;
50769;SDS011;36740;48.698;11.472;2023-08-20T16:10:50;5.60;;;2.90;;
50769;SDS011;36740;48.698;11.472;2023-08-20T16:13:36;6.25;;;3.63;;
50769;SDS011;36740;48.698;11.472;2023-08-20T16:16:22;7.00;;;2.85;;
50769;SDS011;36740;48.698;11.472;2023-08-20T16:19:07;7.28;;;4.15;;
50769;SDS011;36740;48.698;11.472;2023-08-20T16:21:53;4.72;;;3.03;;
50769;SDS011;36740;48.698;11.472;2023-08-20T16:24:38;5.15;;;2.75;;
50769;SDS011;36740;48.698;11.472;2023-08-20T16:27:24;6.47;;;3.20;;
50769;SDS011;36740;48.698;11.472;2023-08-20T16:30:10;6.68;;;3.17;;
50769;SDS011;36740;48.698;11.472;2023-08-20T16:32:56;7.35;;;2.55;;
50769;SDS011;36740;48.698;11.472;2023-08-20T16:35:45;4.38;;;2.70;;
50769;SDS011;36740;48.698;11.472;2023-08-20T16:38:30;3.60;;;2.23;;
50769;SDS011;36740;48.698;11.472;2023-08-20T16:41:16;4.10;;;2.67;;
50769;SDS011;36740;48.698;11.472;2023-08-20T16:44:02;6.32;;;3.22;;
50769;SDS011;36740;48.698;11.472;2023-08-20T16:46:48;6.60;;;3.53;;
50769;SDS011;36740;48.698;11.472;2023-08-20T16:49:34;5.82;;;2.75;;
50769;SDS011;36740;48.698;11.472;2023-08-20T16:52:19;4.43;;;2.53;;
50769;SDS011;36740;48.698;11.472;2023-08-20T16:55:05;5.57;;;2.58;;
50769;SDS011;36740;48.698;11.472;2023-08-20T16:57:51;5.88;;;3.22;;
50769;SDS011;36740;48.698;11.472;2023-08-20T17:00:38;8.07;;;3.72;;
50769;SDS011;36740;48.698;11.472;2023-08-20T17:03:24;6.90;;;3.22;;
50769;SDS011;36740;48.698;11.472;2023-08-20T17:06:10;5.35;;;2.47;;
50769;SDS011;36740;48.698;11.472;2023-08-20T17:09:01;3.85;;;2.47;;
50769;SDS011;36740;48.698;11.472;2023-08-20T17:11:49;4.53;;;2.92;;
50769;SDS011;36740;48.698;11.472;2023-08-20T17:14:35;9.68;;;3.75;;
50769;SDS011;36740;48.698;11.472;2023-08-20T17:17:20;4.25;;;2.92;;
50769;SDS011;36740;48.698;11.472;2023-08-20T17:20:06;3.85;;;2.45;;
50769;SDS011;36740;48.698;11.472;2023-08-20T17:22:52;3.88;;;2.85;;
50769;SDS011;36740;48.698;11.472;2023-08-20T17:25:38;9.30;;;3.13;;
50769;SDS011;36740;48.698;11.472;2023-08-20T17:28:23;6.20;;;2.83;;
50769;SDS011;36740;48.698;11.472;2023-08-20T17:31:09;6.57;;;3.40;;
50769;SDS011;36740;48.698;11.472;2023-08-20T17:33:54;15.65;;;3.85;;
50769;SDS011;36740;48.698;11.472;2023-08-20T17:36:40;6.30;;;2.78;;
50769;SDS011;36740;48.698;11.472;2023-08-20T17:39:26;3.38;;;2.47;;
50769;SDS011;36740;48.698;11.472;2023-08-20T17:41:51;7.28;;;3.78;;
50769;SDS011;36740;48.698;11.472;2023-08-20T17:44:16;8.63;;;3.27;;
50769;SDS011;36740;48.698;11.472;2023-08-20T17:46:45;6.30;;;3.30;;
50769;SDS011;36740;48.698;11.472;2023-08-20T17:49:15;3.72;;;2.75;;
50769;SDS011;36740;48.698;11.472;2023-08-20T17:51:48;9.85;;;4.00;;
50769;SDS011;36740;48.698;11.472;2023-08-20T18:03:10;5.65;;;4.18;;
50769;SDS011;36740;48.698;11.472;2023-08-20T18:06:28;5.43;;;2.60;;
50769;SDS011;36740;48.698;11.472;2023-08-20T18:09:40;5.70;;;3.50;;
50769;SDS011;36740;48.698;11.472;2023-08-20T18:12:28;9.63;;;4.10;;
50769;SDS011;36740;48.698;11.472;2023-08-20T18:15:14;7.10;;;3.35;;
50769;SDS011;36740;48.698;11.472;2023-08-20T18:21:09;6.47;;;3.45;;
50769;SDS011;36740;48.698;11.472;2023-08-20T18:23:59;14.23;;;4.00;;
50769;SDS011;36740;48.698;11.472;2023-08-20T18:26:48;4.68;;;2.55;;
50769;SDS011;36740;48.698;11.472;2023-08-20T18:29:34;8.68;;;3.72;;
50769;SDS011;36740;48.698;11.472;2023-08-20T18:32:28;6.80;;;3.22;;
50769;SDS011;36740;48.698;11.472;2023-08-20T18:38:47;5.40;;;3.83;;
50769;SDS011;36740;48.698;11.472;2023-08-20T18:41:33;7.20;;;4.30;;
50769;SDS011;36740;48.698;11.472;2023-08-20T18:44:26;8.77;;;3.83;;
50769;SDS011;36740;48.698;11.472;2023-08-20T18:47:15;11.03;;;3.60;;
50769;SDS011;36740;48.698;11.472;2023-08-20T18:50:04;7.03;;;3.53;;
50769;SDS011;36740;48.698;11.472;2023-08-20T18:52:54;8.23;;;4.40;;
50769;SDS011;36740;48.698;11.472;2023-08-20T18:55:41;9.68;;;4.20;;
50769;SDS011;36740;48.698;11.472;2023-08-20T18:58:33;4.07;;;2.90;;
50769;SDS011;36740;48.698;11.472;2023-08-20T19:01:30;5.20;;;3.58;;
50769;SDS011;36740;48.698;11.472;2023-08-20T19:04:18;5.85;;;3.53;;
50769;SDS011;36740;48.698;11.472;2023-08-20T19:07:11;6.88;;;3.40;;
50769;SDS011;36740;48.698;11.472;2023-08-20T19:10:10;6.18;;;3.40;;
50769;SDS011;36740;48.698;11.472;2023-08-20T19:19:30;5.85;;;3.53;;
50769;SDS011;36740;48.698;11.472;2023-08-20T19:26:25;6.97;;;3.30;;
50769;SDS011;36740;48.698;11.472;2023-08-20T19:29:44;6.78;;;3.40;;
50769;SDS011;36740;48.698;11.472;2023-08-20T19:33:00;9.20;;;3.95;;
50769;SDS011;36740;48.698;11.472;2023-08-20T19:36:05;5.63;;;3.77;;
50769;SDS011;36740;48.698;11.472;2023-08-20T19:39:23;12.70;;;4.63;;
50769;SDS011;36740;48.698;11.472;2023-08-20T19:42:26;8.55;;;4.65;;
50769;SDS011;36740;48.698;11.472;2023-08-20T19:45:19;8.77;;;4.55;;
50769;SDS011;36740;48.698;11.472;2023-08-20T19:48:07;8.07;;;4.50;;
50769;SDS011;36740;48.698;11.472;2023-08-20T19:51:03;5.93;;;3.47;;
50769;SDS011;36740;48.698;11.472;2023-08-20T19:54:21;8.95;;;4.57;;
50769;SDS011;36740;48.698;11.472;2023-08-20T19:57:13;9.75;;;4.47;;
50769;SDS011;36740;48.698;11.472;2023-08-20T20:00:18;7.05;;;5.10;;
50769;SDS011;36740;48.698;11.472;2023-08-20T20:03:07;11.27;;;3.47;;
50769;SDS011;36740;48.698;11.472;2023-08-20T20:05:53;5.40;;;3.25;;
50769;SDS011;36740;48.698;11.472;2023-08-20T20:08:39;6.72;;;4.53;;
50769;SDS011;36740;48.698;11.472;2023-08-20T20:11:37;8.57;;;4.55;;
50769;SDS011;36740;48.698;11.472;2023-08-20T20:14:40;9.05;;;4.10;;
50769;SDS011;36740;48.698;11.472;2023-08-20T20:17:39;6.53;;;4.68;;
50769;SDS011;36740;48.698;11.472;2023-08-20T20:20:31;6.07;;;4.25;;
50769;SDS011;36740;48.698;11.472;2023-08-20T20:23:59;7.72;;;5.28;;
50769;SDS011;36740;48.698;11.472;2023-08-20T20:26:47;7.80;;;5.27;;
50769;SDS011;36740;48.698;11.472;2023-08-20T20:29:36;10.63;;;4.75;;
50769;SDS011;36740;48.698;11.472;2023-08-20T20:32:22;6.65;;;3.90;;
50769;SDS011;36740;48.698;11.472;2023-08-20T20:35:25;9.20;;;4.18;;
50769;SDS011;36740;48.698;11.472;2023-08-20T20:38:13;7.63;;;4.07;;
50769;SDS011;36740;48.698;11.472;2023-08-20T20:41:10;6.50;;;4.05;;
50769;SDS011;36740;48.698;11.472;2023-08-20T20:44:18;7.53;;;4.55;;
50769;SDS011;36740;48.698;11.472;2023-08-20T20:47:09;8.15;;;4.95;;
50769;SDS011;36740;48.698;11.472;2023-08-20T20:49:58;8.38;;;3.78;;
50769;SDS011;36740;48.698;11.472;2023-08-20T20:52:55;8.38;;;5.53;;
50769;SDS011;36740;48.698;11.472;2023-08-20T20:55:46;8.75;;;5.25;;
50769;SDS011;36740;48.698;11.472;2023-08-20T20:58:42;8.40;;;5.82;;
50769;SDS011;36740;48.698;11.472;2023-08-20T21:01:41;11.27;;;5.90;;
50769;SDS011;36740;48.698;11.472;2023-08-20T21:04:36;9.90;;;5.72;;
50769;SDS011;36740;48.698;11.472;2023-08-20T21:07:27;8.98;;;5.47;;
50769;SDS011;36740;48.698;11.472;2023-08-20T21:10:21;12.77;;;6.50;;
50769;SDS011;36740;48.698;11.472;2023-08-20T21:13:34;11.48;;;5.25;;
50769;SDS011;36740;48.698;11.472;2023-08-20T21:16:22;9.10;;;6.15;;
50769;SDS011;36740;48.698;11.472;2023-08-20T21:25:52;10.63;;;6.75;;
50769;SDS011;36740;48.698;11.472;2023-08-20T21:29:03;11.75;;;6.93;;
50769;SDS011;36740;48.698;11.472;2023-08-20T21:31:54;10.13;;;6.40;;
50769;SDS011;36740;48.698;11.472;2023-08-20T21:34:46;14.27;;;6.10;;
50769;SDS011;36740;48.698;11.472;2023-08-20T21:37:40;9.13;;;6.00;;
50769;SDS011;36740;48.698;11.472;2023-08-20T21:40:28;10.43;;;5.88;;
50769;SDS011;36740;48.698;11.472;2023-08-20T21:43:23;8.68;;;5.68;;
50769;SDS011;36740;48.698;11.472;2023-08-20T21:46:11;9.63;;;5.53;;
50769;SDS011;36740;48.698;11.472;2023-08-20T21:48:56;9.15;;;6.13;;
50769;SDS011;36740;48.698;11.472;2023-08-20T21:51:47;9.90;;;6.15;;
50769;SDS011;36740;48.698;11.472;2023-08-20T21:54:33;7.38;;;5.47;;
50769;SDS011;36740;48.698;11.472;2023-08-20T21:57:20;12.80;;;7.07;;
50769;SDS011;36740;48.698;11.472;2023-08-20T22:00:11;10.38;;;6.38;;
50769;SDS011;36740;48.698;11.472;2023-08-20T22:02:59;8.95;;;4.72;;
50769;SDS011;36740;48.698;11.472;2023-08-20T22:05:47;9.63;;;5.72;;
50769;SDS011;36740;48.698;11.472;2023-08-20T22:08:36;7.72;;;5.47;;
50769;SDS011;36740;48.698;11.472;2023-08-20T22:11:25;7.63;;;5.07;;
50769;SDS011;36740;48.698;11.472;2023-08-20T22:14:15;8.80;;;5.18;;
50769;SDS011;36740;48.698;11.472;2023-08-20T22:17:16;9.63;;;5.57;;
50769;SDS011;36740;48.698;11.472;2023-08-20T22:20:08;7.93;;;6.03;;
50769;SDS011;36740;48.698;11.472;2023-08-20T22:23:02;9.35;;;6.75;;
50769;SDS011;36740;48.698;11.472;2023-08-20T22:25:54;9.93;;;6.22;;
50769;SDS011;36740;48.698;11.472;2023-08-20T22:28:40;9.00;;;5.70;;
50769;SDS011;36740;48.698;11.472;2023-08-20T22:31:31;12.23;;;5.57;;
50769;SDS011;36740;48.698;11.472;2023-08-20T22:34:27;11.70;;;6.18;;
50769;SDS011;36740;48.698;11.472;2023-08-20T22:37:13;8.68;;;5.00;;
50769;SDS011;36740;48.698;11.472;2023-08-20T22:40:04;9.48;;;5.68;;
50769;SDS011;36740;48.698;11.472;2023-08-20T22:42:52;12.10;;;6.63;;
50769;SDS011;36740;48.698;11.472;2023-08-20T22:45:44;11.20;;;7.15;;
50769;SDS011;36740;48.698;11.472;2023-08-20T22:48:51;12.85;;;7.05;;
50769;SDS011;36740;48.698;11.472;2023-08-20T22:51:36;9.13;;;5.30;;
50769;SDS011;36740;48.698;11.472;2023-08-20T22:54:27;10.80;;;6.38;;
50769;SDS011;36740;48.698;11.472;2023-08-20T23:00:20;10.40;;;6.10;;
50769;SDS011;36740;48.698;11.472;2023-08-20T23:03:20;11.55;;;5.85;;
50769;SDS011;36740;48.698;11.472;2023-08-20T23:06:09;12.15;;;6.07;;
50769;SDS011;36740;48.698;11.472;2023-08-20T23:09:02;10.00;;;6.72;;
50769;SDS011;36740;48.698;11.472;2023-08-20T23:12:06;9.18;;;5.47;;
50769;SDS011;36740;48.698;11.472;2023-08-20T23:14:54;8.40;;;5.53;;
50769;SDS011;36740;48.698;11.472;2023-08-20T23:17:42;8.27;;;5.25;;
50769;SDS011;36740;48.698;11.472;2023-08-20T23:20:31;11.48;;;6.75;;
50769;SDS011;36740;48.698;11.472;2023-08-20T23:23:22;7.97;;;5.55;;
50769;SDS011;36740;48.698;11.472;2023-08-20T23:26:15;8.32;;;5.70;;
50769;SDS011;36740;48.698;11.472;2023-08-20T23:29:10;7.57;;;4.95;;
50769;SDS011;36740;48.698;11.472;2023-08-20T23:31:56;8.95;;;5.72;;
50769;SDS011;36740;48.698;11.472;2023-08-20T23:34:41;9.77;;;5.97;;
50769;SDS011;36740;48.698;11.472;2023-08-20T23:37:33;10.32;;;6.28;;
50769;SDS011;36740;48.698;11.472;2023-08-20T23:40:40;9.55;;;6.43;;
50769;SDS011;36740;48.698;11.472;2023-08-20T23:43:28;25.77;;;7.65;;
50769;SDS011;36740;48.698;11.472;2023-08-20T23:46:22;9.30;;;5.40;;
50769;SDS011;36740;48.698;11.472;2023-08-20T23:49:16;8.23;;;5.53;;
50769;SDS011;36740;48.698;11.472;2023-08-20T23:52:06;8.98;;;5.40;;
50769;SDS011;36740;48.698;11.472;2023-08-20T23:55:04;9.70;;;7.20;;
50769;SDS011;36740;48.698;11.472;2023-08-20T23:57:54;12.75;;;5.45;;
